createdAt,value
2022-10-18T00:00:35.521Z,15.70
2022-10-18T00:03:02.027Z,15.60
2022-10-18T00:05:28.507Z,15.60
2022-10-18T00:07:54.994Z,15.60
2022-10-18T00:10:21.614Z,15.60
2022-10-18T00:12:48.124Z,15.70
2022-10-18T00:15:14.615Z,15.60
2022-10-18T00:17:41.168Z,15.60
2022-10-18T00:20:08.291Z,15.60
2022-10-18T00:22:38.830Z,15.60
2022-10-18T00:25:06.192Z,15.60
2022-10-18T00:27:33.180Z,15.60
2022-10-18T00:29:59.867Z,15.60
2022-10-18T00:32:26.828Z,15.60
2022-10-18T00:34:53.356Z,15.50
2022-10-18T00:37:19.951Z,15.50
2022-10-18T00:39:46.512Z,15.50
2022-10-18T00:42:17.460Z,15.50
2022-10-18T00:44:43.928Z,15.50
2022-10-18T00:47:11.918Z,15.40
2022-10-18T00:49:40.579Z,15.40
2022-10-18T00:52:09.557Z,15.40
2022-10-18T00:54:38.289Z,15.40
2022-10-18T00:57:05.214Z,15.40
2022-10-18T00:59:31.778Z,15.40
2022-10-18T01:01:58.454Z,15.40
2022-10-18T01:04:25.219Z,15.30
2022-10-18T01:07:10.425Z,15.30
2022-10-18T01:09:59.849Z,15.30
2022-10-18T01:12:36.489Z,15.30
2022-10-18T01:15:05.866Z,15.20
2022-10-18T01:17:38.403Z,15.20
2022-10-18T01:20:04.881Z,15.20
2022-10-18T01:22:44.472Z,15.10
2022-10-18T01:25:25.644Z,15.10
2022-10-18T01:27:58.264Z,15.10
2022-10-18T01:30:33.985Z,15.10
2022-10-18T01:33:16.972Z,15.00
2022-10-18T01:35:46.979Z,15.00
2022-10-18T01:38:17.042Z,15.00
2022-10-18T01:40:45.520Z,15.00
2022-10-18T01:43:12.696Z,15.00
2022-10-18T01:45:39.689Z,14.90
2022-10-18T01:48:06.345Z,14.90
2022-10-18T01:50:33.923Z,14.90
2022-10-18T01:53:00.818Z,14.90
2022-10-18T01:55:43.970Z,14.90
2022-10-18T01:58:10.436Z,14.90
2022-10-18T02:00:42.944Z,14.80
2022-10-18T02:03:18.663Z,14.80
2022-10-18T02:05:51.365Z,14.80
2022-10-18T02:08:24.232Z,14.70
2022-10-18T02:11:34.247Z,14.70
2022-10-18T02:14:06.071Z,14.70
2022-10-18T02:16:37.285Z,14.70
2022-10-18T02:19:27.265Z,14.60
2022-10-18T02:21:54.925Z,14.60
2022-10-18T02:24:23.485Z,14.60
2022-10-18T02:26:50.166Z,14.60
2022-10-18T02:29:16.718Z,14.60
2022-10-18T02:31:44.927Z,14.60
2022-10-18T02:34:16.779Z,14.50
2022-10-18T02:36:45.345Z,14.50
2022-10-18T02:39:14.760Z,14.50
2022-10-18T02:41:41.530Z,14.50
2022-10-18T02:44:08.027Z,14.40
2022-10-18T02:46:34.553Z,14.40
2022-10-18T02:49:01.036Z,14.40
2022-10-18T02:51:27.521Z,14.40
2022-10-18T02:53:53.993Z,14.30
2022-10-18T02:56:20.464Z,14.30
2022-10-18T02:58:46.967Z,14.30
2022-10-18T03:01:13.538Z,14.30
2022-10-18T03:03:40.083Z,14.30
2022-10-18T03:06:06.602Z,14.20
2022-10-18T03:08:33.103Z,14.20
2022-10-18T03:10:59.589Z,14.20
2022-10-18T03:13:26.168Z,14.20
2022-10-18T03:15:52.710Z,14.20
2022-10-18T03:18:19.216Z,14.20
2022-10-18T03:20:45.818Z,14.20
2022-10-18T03:23:12.552Z,14.20
2022-10-18T03:25:41.606Z,14.10
2022-10-18T03:28:10.717Z,14.10
2022-10-18T03:30:38.812Z,14.10
2022-10-18T03:33:05.793Z,14.10
2022-10-18T03:35:32.286Z,14.00
2022-10-18T03:37:58.746Z,14.00
2022-10-18T03:40:25.332Z,14.00
2022-10-18T03:42:51.858Z,14.00
2022-10-18T03:45:18.391Z,14.00
2022-10-18T03:47:44.886Z,13.90
2022-10-18T03:50:11.479Z,13.90
2022-10-18T03:52:38.036Z,13.90
2022-10-18T03:55:04.704Z,13.90
2022-10-18T03:57:31.221Z,13.90
2022-10-18T03:59:57.765Z,13.90
2022-10-18T04:02:24.372Z,13.80
2022-10-18T04:04:50.944Z,13.80
2022-10-18T04:07:17.424Z,13.80
2022-10-18T04:09:43.945Z,13.70
2022-10-18T04:12:10.456Z,13.80
2022-10-18T04:14:36.950Z,13.70
2022-10-18T04:17:04.702Z,13.70
2022-10-18T04:19:31.201Z,13.70
2022-10-18T04:21:57.711Z,13.70
2022-10-18T04:24:24.319Z,13.60
2022-10-18T04:26:50.928Z,13.60
2022-10-18T04:29:17.466Z,13.50
2022-10-18T04:31:43.998Z,13.50
2022-10-18T04:34:10.930Z,13.50
2022-10-18T04:36:37.527Z,13.50
2022-10-18T04:39:04.013Z,13.50
2022-10-18T04:41:30.512Z,13.50
2022-10-18T04:43:56.996Z,13.50
2022-10-18T04:46:23.504Z,13.50
2022-10-18T04:48:50.045Z,13.40
2022-10-18T04:51:16.519Z,13.40
2022-10-18T04:53:43.092Z,13.40
2022-10-18T04:56:09.710Z,13.40
2022-10-18T04:58:36.256Z,13.40
2022-10-18T05:01:06.557Z,13.50
2022-10-18T05:03:33.294Z,13.50
2022-10-18T05:06:02.769Z,13.50
2022-10-18T05:08:29.689Z,13.40
2022-10-18T05:10:56.338Z,13.40
2022-10-18T05:13:22.862Z,13.40
2022-10-18T05:15:49.379Z,13.50
2022-10-18T05:18:15.913Z,13.40
2022-10-18T05:20:42.483Z,13.40
2022-10-18T05:23:10.751Z,13.40
2022-10-18T05:25:41.190Z,13.50
2022-10-18T05:28:10.767Z,13.40
2022-10-18T05:30:38.492Z,13.40
2022-10-18T05:33:05.185Z,13.40
2022-10-18T05:35:31.674Z,13.50
2022-10-18T05:37:58.173Z,13.50
2022-10-18T05:40:24.657Z,13.50
2022-10-18T05:42:53.919Z,13.50
2022-10-18T05:45:20.423Z,13.50
2022-10-18T05:47:46.897Z,13.50
2022-10-18T05:50:13.395Z,13.50
2022-10-18T05:52:39.887Z,13.50
2022-10-18T05:55:06.536Z,13.50
2022-10-18T05:57:33.235Z,13.50
2022-10-18T06:00:00.026Z,13.60
2022-10-18T06:02:26.591Z,13.60
2022-10-18T06:04:53.091Z,13.60
2022-10-18T06:07:19.570Z,13.60
2022-10-18T06:09:46.105Z,13.60
2022-10-18T06:12:12.640Z,13.60
2022-10-18T06:14:39.173Z,13.60
2022-10-18T06:17:05.775Z,13.50
2022-10-18T06:19:32.262Z,13.50
2022-10-18T06:21:58.739Z,13.50
2022-10-18T06:24:26.156Z,13.50
2022-10-18T06:26:52.820Z,13.50
2022-10-18T06:29:19.337Z,13.50
2022-10-18T06:31:45.943Z,13.50
2022-10-18T06:34:12.428Z,13.50
2022-10-18T06:36:38.917Z,13.50
2022-10-18T06:39:05.413Z,13.40
2022-10-18T06:41:31.880Z,13.50
2022-10-18T06:44:03.105Z,13.40
2022-10-18T06:46:29.583Z,13.50
2022-10-18T06:48:57.515Z,13.40
2022-10-18T06:51:24.006Z,13.50
2022-10-18T06:53:59.696Z,13.50
2022-10-18T06:56:37.177Z,13.50
2022-10-18T06:59:03.873Z,13.40
2022-10-18T07:01:30.435Z,13.40
2022-10-18T07:03:57.176Z,13.50
2022-10-18T07:06:23.868Z,13.50
2022-10-18T07:08:52.681Z,13.50
2022-10-18T07:11:21.248Z,13.50
2022-10-18T07:13:47.718Z,13.50
2022-10-18T07:16:18.173Z,13.60
2022-10-18T07:18:46.926Z,13.60
2022-10-18T07:21:14.568Z,13.70
2022-10-18T07:23:42.402Z,13.70
2022-10-18T07:26:13.211Z,13.70
2022-10-18T07:28:39.858Z,13.80
2022-10-18T07:31:07.251Z,13.90
2022-10-18T07:33:34.429Z,13.90
2022-10-18T07:36:02.072Z,13.90
2022-10-18T07:38:28.755Z,14.10
2022-10-18T07:40:58.643Z,14.10
2022-10-18T07:44:12.497Z,14.10
2022-10-18T07:46:39.072Z,14.20
2022-10-18T07:49:05.821Z,14.20
2022-10-18T07:51:32.805Z,14.30
2022-10-18T07:53:59.561Z,14.40
2022-10-18T07:56:26.192Z,14.50
2022-10-18T07:58:54.377Z,14.60
2022-10-18T08:01:22.514Z,14.70
2022-10-18T08:03:49.991Z,14.80
2022-10-18T08:06:18.418Z,14.90
2022-10-18T08:08:46.021Z,15.00
2022-10-18T08:11:18.907Z,15.00
2022-10-18T08:13:46.209Z,15.00
2022-10-18T08:16:15.971Z,15.00
2022-10-18T08:18:42.735Z,15.10
2022-10-18T08:21:10.891Z,15.20
2022-10-18T08:23:37.901Z,15.30
2022-10-18T08:26:09.151Z,15.40
2022-10-18T08:28:36.846Z,15.60
2022-10-18T08:31:05.675Z,15.80
2022-10-18T08:33:33.267Z,16.00
2022-10-18T08:36:01.479Z,16.20
2022-10-18T08:38:32.698Z,16.40
2022-10-18T08:41:28.541Z,16.60
2022-10-18T08:44:18.361Z,16.80
2022-10-18T08:47:05.053Z,16.90
2022-10-18T08:50:13.340Z,17.10
2022-10-18T08:53:13.333Z,17.40
2022-10-18T08:56:00.116Z,17.50
2022-10-18T08:58:31.554Z,17.70
2022-10-18T09:01:26.833Z,17.90
2022-10-18T09:04:09.344Z,18.00
2022-10-18T09:06:47.831Z,18.10
2022-10-18T09:09:38.298Z,18.30
2022-10-18T09:12:43.601Z,18.40
2022-10-18T09:15:39.085Z,18.60
2022-10-18T09:18:23.661Z,18.70
2022-10-18T09:21:02.953Z,18.80
2022-10-18T09:23:37.976Z,18.90
2022-10-18T09:26:15.709Z,19.00
2022-10-18T09:28:54.079Z,19.10
2022-10-18T09:31:28.744Z,19.10
2022-10-18T09:34:23.300Z,19.20
2022-10-18T09:36:51.824Z,19.30
2022-10-18T09:39:35.169Z,19.40
2022-10-18T09:42:11.348Z,19.50
2022-10-18T09:44:47.322Z,19.50
2022-10-18T09:47:41.056Z,19.60
2022-10-18T09:50:39.434Z,19.70
2022-10-18T09:53:22.607Z,19.80
2022-10-18T09:56:26.187Z,19.80
2022-10-18T09:58:52.857Z,19.80
2022-10-18T10:01:28.522Z,19.90
2022-10-18T10:03:55.204Z,20.00
2022-10-18T10:06:28.015Z,19.90
2022-10-18T10:09:05.063Z,20.00
2022-10-18T10:11:47.123Z,20.10
2022-10-18T10:14:26.436Z,20.20
2022-10-18T10:16:55.844Z,20.20
2022-10-18T10:19:30.400Z,20.10
2022-10-18T10:22:01.798Z,20.20
2022-10-18T10:24:46.637Z,20.20
2022-10-18T10:27:24.482Z,20.20
2022-10-18T10:29:56.621Z,20.20
2022-10-18T10:34:58.415Z,20.30
2022-10-18T10:37:36.484Z,20.30
2022-10-18T10:40:18.240Z,20.40
2022-10-18T10:43:04.317Z,20.40
2022-10-18T10:46:00.446Z,20.30
2022-10-18T10:48:33.010Z,20.40
2022-10-18T10:51:02.091Z,20.40
2022-10-18T10:53:41.008Z,20.40
2022-10-18T10:56:16.947Z,20.40
2022-10-18T10:58:43.683Z,20.40
2022-10-18T11:01:23.847Z,20.60
2022-10-18T11:03:53.487Z,20.60
2022-10-18T11:06:44.813Z,20.40
2022-10-18T11:09:37.482Z,20.40
2022-10-18T11:12:14.329Z,20.50
2022-10-18T11:14:45.432Z,20.60
2022-10-18T11:17:26.314Z,20.50
2022-10-18T11:20:06.857Z,20.50
2022-10-18T11:23:01.602Z,20.50
2022-10-18T11:26:01.076Z,20.40
2022-10-18T11:28:45.234Z,20.40
2022-10-18T11:31:49.201Z,20.30
2022-10-18T11:34:21.826Z,20.40
2022-10-18T11:37:27.124Z,20.50
2022-10-18T11:39:58.967Z,20.40
2022-10-18T11:42:43.808Z,20.40
2022-10-18T11:45:34.882Z,20.40
2022-10-18T11:48:20.298Z,20.50
2022-10-18T11:51:10.286Z,20.50
2022-10-18T11:53:42.790Z,20.60
2022-10-18T11:56:26.988Z,20.60
2022-10-18T11:59:18.559Z,20.60
2022-10-18T12:02:22.942Z,20.50
2022-10-18T12:05:24.753Z,20.60
2022-10-18T12:07:58.362Z,20.40
2022-10-18T12:10:37.839Z,20.40
2022-10-18T12:13:22.923Z,20.40
2022-10-18T12:15:50.696Z,20.50
2022-10-18T12:18:21.461Z,20.50
2022-10-18T12:20:56.873Z,20.60
2022-10-18T12:23:29.236Z,20.60
2022-10-18T12:26:01.922Z,20.50
2022-10-18T12:29:00.389Z,20.50
2022-10-18T12:31:31.027Z,20.60
2022-10-18T12:34:02.544Z,20.70
2022-10-18T12:36:36.786Z,20.70
2022-10-18T12:39:08.683Z,20.70
2022-10-18T12:41:35.946Z,20.70
2022-10-18T12:44:31.278Z,20.70
2022-10-18T12:47:00.919Z,20.70
2022-10-18T12:49:33.149Z,20.60
2022-10-18T12:52:01.845Z,20.60
2022-10-18T12:54:34.768Z,20.60
2022-10-18T12:57:03.544Z,20.60
2022-10-18T12:59:30.066Z,20.60
2022-10-18T13:01:59.476Z,20.60
2022-10-18T13:04:28.843Z,20.60
2022-10-18T13:07:20.508Z,20.60
2022-10-18T13:10:14.965Z,20.50
2022-10-18T13:13:12.173Z,20.30
2022-10-18T13:15:59.923Z,20.20
2022-10-18T13:18:41.518Z,20.30
2022-10-18T13:21:13.329Z,20.30
2022-10-18T13:23:54.596Z,20.20
2022-10-18T13:26:39.435Z,20.20
2022-10-18T13:29:20.864Z,20.10
2022-10-18T13:32:19.393Z,19.90
2022-10-18T13:34:46.047Z,19.90
2022-10-18T13:37:12.560Z,20.00
2022-10-18T13:39:40.247Z,20.00
2022-10-18T13:42:15.575Z,19.90
2022-10-18T13:44:44.494Z,19.90
2022-10-18T13:47:13.719Z,19.90
2022-10-18T13:49:40.355Z,19.90
2022-10-18T13:52:32.010Z,19.90
2022-10-18T13:55:17.601Z,19.90
2022-10-18T13:58:21.810Z,19.80
2022-10-18T14:01:28.028Z,19.70
2022-10-18T14:04:13.860Z,19.70
2022-10-18T14:06:46.097Z,19.70
2022-10-18T14:09:44.965Z,19.60
2022-10-18T14:12:17.095Z,19.40
2022-10-18T14:14:46.059Z,19.30
2022-10-18T14:17:35.047Z,19.30
2022-10-18T14:20:18.486Z,19.30
2022-10-18T14:22:53.119Z,19.20
2022-10-18T14:25:23.400Z,19.10
2022-10-18T14:28:03.532Z,19.20
2022-10-18T14:30:30.228Z,19.00
2022-10-18T14:32:59.383Z,19.10
2022-10-18T14:35:35.189Z,19.10
2022-10-18T14:38:02.737Z,18.90
2022-10-18T14:40:31.460Z,19.00
2022-10-18T14:43:12.659Z,19.00
2022-10-18T14:45:40.183Z,18.90
2022-10-18T14:48:12.964Z,18.90
2022-10-18T14:50:39.575Z,18.80
2022-10-18T14:53:17.570Z,18.80
2022-10-18T14:55:54.569Z,18.70
2022-10-18T14:58:22.207Z,18.70
2022-10-18T15:00:49.147Z,18.70
2022-10-18T15:03:17.617Z,18.70
2022-10-18T15:05:56.335Z,18.70
2022-10-18T15:08:24.201Z,18.60
2022-10-18T15:10:51.227Z,18.50
2022-10-18T15:13:18.466Z,18.50
2022-10-18T15:15:45.186Z,18.40
2022-10-18T15:18:22.429Z,18.40
2022-10-18T15:21:25.632Z,18.30
2022-10-18T15:23:52.434Z,18.30
2022-10-18T15:26:26.619Z,18.30
2022-10-18T15:28:56.347Z,18.30
2022-10-18T15:31:34.875Z,18.30
2022-10-18T15:34:15.473Z,18.30
2022-10-18T15:39:15.905Z,18.20
2022-10-18T15:42:00.119Z,18.10
2022-10-18T15:44:29.633Z,18.00
2022-10-18T15:47:12.406Z,17.90
2022-10-18T15:49:45.199Z,17.80
2022-10-18T15:52:40.645Z,17.70
2022-10-18T15:55:29.187Z,17.70
2022-10-18T15:58:11.109Z,17.70
2022-10-18T16:00:37.702Z,17.60
2022-10-18T16:03:04.313Z,17.50
2022-10-18T16:05:30.917Z,17.50
2022-10-18T16:07:57.482Z,17.40
2022-10-18T16:10:24.077Z,17.30
2022-10-18T16:12:50.711Z,17.30
2022-10-18T16:15:17.487Z,17.20
2022-10-18T16:17:44.101Z,17.20
2022-10-18T16:20:23.962Z,17.10
2022-10-18T16:22:50.662Z,17.00
2022-10-18T16:25:17.508Z,16.90
2022-10-18T16:27:44.072Z,16.80
2022-10-18T16:30:18.206Z,16.80
2022-10-18T16:32:46.148Z,16.70
2022-10-18T16:35:13.343Z,16.60
2022-10-18T16:37:40.214Z,16.50
2022-10-18T16:40:36.551Z,16.40
2022-10-18T16:43:05.557Z,16.30
2022-10-18T16:45:32.153Z,16.20
2022-10-18T16:47:58.699Z,16.10
2022-10-18T16:50:25.312Z,16.00
2022-10-18T16:52:51.848Z,15.90
2022-10-18T16:55:24.708Z,15.80
2022-10-18T16:57:51.815Z,15.80
2022-10-18T17:00:23.065Z,15.70
2022-10-18T17:02:50.453Z,15.60
2022-10-18T17:05:18.343Z,15.50
2022-10-18T17:07:46.052Z,15.40
2022-10-18T17:10:15.380Z,15.30
2022-10-18T17:12:42.360Z,15.20
2022-10-18T17:15:09.654Z,15.20
2022-10-18T17:17:36.529Z,15.10
2022-10-18T17:20:04.898Z,15.00
2022-10-18T17:22:31.679Z,15.00
2022-10-18T17:24:58.329Z,14.90
2022-10-18T17:27:25.217Z,14.90
2022-10-18T17:29:51.853Z,14.90
2022-10-18T17:32:18.439Z,14.80
2022-10-18T17:34:44.995Z,14.70
2022-10-18T17:37:11.609Z,14.70
2022-10-18T17:39:38.308Z,14.60
2022-10-18T17:42:04.888Z,14.60
2022-10-18T17:44:31.572Z,14.50
2022-10-18T17:46:58.167Z,14.50
2022-10-18T17:49:25.277Z,14.50
2022-10-18T17:51:51.852Z,14.40
2022-10-18T17:54:18.485Z,14.30
2022-10-18T17:56:45.190Z,14.20
2022-10-18T17:59:11.796Z,14.10
2022-10-18T18:01:38.388Z,14.10
2022-10-18T18:04:05.205Z,14.10
2022-10-18T18:06:34.980Z,14.00
2022-10-18T18:09:06.786Z,14.00
2022-10-18T18:11:34.943Z,13.90
2022-10-18T18:14:01.737Z,13.90
2022-10-18T18:16:29.806Z,13.80
2022-10-18T18:18:58.544Z,13.70
2022-10-18T18:21:25.664Z,13.70
2022-10-18T18:23:52.295Z,13.70
2022-10-18T18:26:19.457Z,13.70
2022-10-18T18:28:46.194Z,13.60
2022-10-18T18:31:18.158Z,13.60
2022-10-18T18:33:44.988Z,13.50
2022-10-18T18:36:12.333Z,13.50
2022-10-18T18:38:40.058Z,13.40
2022-10-18T18:41:08.365Z,13.40
2022-10-18T18:43:36.115Z,13.30
2022-10-18T18:46:03.192Z,13.30
2022-10-18T18:48:32.332Z,13.30
2022-10-18T18:50:59.205Z,13.20
2022-10-18T18:53:28.652Z,13.20
2022-10-18T18:56:01.965Z,13.10
2022-10-18T18:58:28.508Z,13.10
2022-10-18T19:00:55.057Z,13.10
2022-10-18T19:03:21.673Z,13.00
2022-10-18T19:05:48.213Z,13.00
2022-10-18T19:08:14.787Z,12.90
2022-10-18T19:10:41.351Z,12.90
2022-10-18T19:13:07.931Z,12.80
2022-10-18T19:15:34.512Z,12.70
2022-10-18T19:18:01.127Z,12.70
2022-10-18T19:20:27.693Z,12.60
2022-10-18T19:22:54.243Z,12.60
2022-10-18T19:25:23.400Z,12.50
2022-10-18T19:27:52.819Z,12.50
2022-10-18T19:30:19.774Z,12.40
2022-10-18T19:32:46.336Z,12.40
2022-10-18T19:35:12.896Z,12.40
2022-10-18T19:37:40.610Z,12.30
2022-10-18T19:40:07.707Z,12.30
2022-10-18T19:42:35.811Z,12.30
2022-10-18T19:45:03.000Z,12.20
2022-10-18T19:47:29.573Z,12.10
2022-10-18T19:49:56.713Z,12.10
2022-10-18T19:52:23.336Z,12.10
2022-10-18T19:54:49.961Z,12.00
2022-10-18T19:57:16.554Z,12.00
2022-10-18T19:59:43.120Z,12.00
2022-10-18T20:02:14.981Z,11.90
2022-10-18T20:04:41.575Z,11.90
2022-10-18T20:07:08.138Z,11.90
2022-10-18T20:09:34.767Z,11.70
2022-10-18T20:12:01.337Z,11.70
2022-10-18T20:14:27.955Z,11.70
2022-10-18T20:16:54.783Z,11.70
2022-10-18T20:19:21.340Z,11.70
2022-10-18T20:21:47.908Z,11.60
2022-10-18T20:24:14.483Z,11.60
2022-10-18T20:26:41.169Z,11.60
2022-10-18T20:29:08.085Z,11.50
2022-10-18T20:31:38.195Z,11.50
2022-10-18T20:34:11.695Z,11.50
2022-10-18T20:36:38.985Z,11.40
2022-10-18T20:39:06.819Z,11.40
2022-10-18T20:41:40.764Z,11.30
2022-10-18T20:44:12.008Z,11.30
2022-10-18T20:46:39.314Z,11.30
2022-10-18T20:49:07.441Z,11.20
2022-10-18T20:51:34.976Z,11.20
2022-10-18T20:56:34.217Z,11.10
2022-10-18T20:59:01.386Z,11.10
2022-10-18T21:01:31.081Z,11.10
2022-10-18T21:04:00.187Z,11.00
2022-10-18T21:06:29.370Z,11.00
2022-10-18T21:09:20.336Z,11.00
2022-10-18T21:11:49.961Z,11.10
2022-10-18T21:14:19.409Z,11.00
2022-10-18T21:16:46.869Z,11.00
2022-10-18T21:19:21.973Z,11.00
2022-10-18T21:21:50.727Z,10.90
2022-10-18T21:24:19.033Z,10.80
2022-10-18T21:26:46.191Z,10.80
2022-10-18T21:29:13.015Z,10.80
2022-10-18T21:31:42.168Z,10.70
2022-10-18T21:34:15.515Z,10.70
2022-10-18T21:36:43.672Z,10.60
2022-10-18T21:39:16.540Z,10.60
2022-10-18T21:41:43.342Z,10.60
2022-10-18T21:44:11.571Z,10.60
2022-10-18T21:46:39.363Z,10.60
2022-10-18T21:49:06.998Z,10.60
2022-10-18T21:51:33.837Z,10.50
2022-10-18T21:54:00.454Z,10.50
2022-10-18T21:56:29.599Z,10.50
2022-10-18T21:58:56.909Z,10.50
2022-10-18T22:01:24.727Z,10.40
2022-10-18T22:03:54.370Z,10.30
2022-10-18T22:06:21.791Z,10.30
2022-10-18T22:08:54.434Z,10.30
2022-10-18T22:11:24.771Z,10.30
2022-10-18T22:13:52.992Z,10.30
2022-10-18T22:16:19.608Z,10.30
2022-10-18T22:18:47.650Z,10.30
2022-10-18T22:21:15.981Z,10.20
2022-10-18T22:23:48.398Z,10.20
2022-10-18T22:26:18.815Z,10.10
2022-10-18T22:28:46.156Z,10.10
2022-10-18T22:31:24.183Z,10.00
2022-10-18T22:33:55.740Z,10.00
2022-10-18T22:36:23.164Z,10.00
2022-10-18T22:38:50.282Z,10.00
2022-10-18T22:41:16.971Z,10.00
2022-10-18T22:43:43.725Z,10.00
2022-10-18T22:46:13.528Z,10.00
2022-10-18T22:48:40.865Z,9.90
2022-10-18T22:51:08.092Z,9.90
2022-10-18T22:53:35.953Z,9.90
2022-10-18T22:56:03.708Z,9.80
2022-10-18T22:58:30.749Z,9.80
2022-10-18T23:01:09.068Z,9.70
2022-10-18T23:03:36.447Z,9.80
2022-10-18T23:06:04.749Z,9.90
2022-10-18T23:08:32.196Z,9.90
2022-10-18T23:10:59.782Z,10.00
2022-10-18T23:13:27.460Z,10.00
2022-10-18T23:16:04.376Z,10.00
2022-10-18T23:18:31.955Z,10.00
2022-10-18T23:21:10.364Z,10.00
2022-10-18T23:23:38.666Z,10.00
2022-10-18T23:26:07.402Z,10.00
2022-10-18T23:28:36.549Z,10.00
2022-10-18T23:31:08.586Z,10.00
2022-10-18T23:33:35.551Z,9.90
2022-10-18T23:36:02.248Z,9.90
2022-10-18T23:38:30.535Z,9.90
2022-10-18T23:40:57.145Z,9.90
2022-10-18T23:43:23.772Z,9.90
2022-10-18T23:45:50.545Z,9.90
2022-10-18T23:48:17.127Z,9.90
2022-10-18T23:50:43.997Z,9.80
2022-10-18T23:53:11.000Z,9.70
2022-10-18T23:55:37.607Z,9.70
2022-10-18T23:58:04.272Z,9.70
